Time;durP1;ratioP1;P1;durP2;ratioP2;P2;SDS_P1;SDS_P2;PMS_P1;PMS_P2;Temp;Humidity;BMP_temperature;BMP_pressure;BME280_temperature;BME280_humidity;BME280_pressure;Samples;Min_cycle;Max_cycle;Signal;HPM_P1;HPM_P2
2023/06/29 00:01:14;;;;;;;15.77;8.80;;;;;;;20.45;92.22;100646.91;8307386;28;20033;-59
2023/06/29 00:05:15;;;;;;;16.58;8.05;;;;;;;20.49;92.34;100647.34;8303623;28;20042;-59
2023/06/29 00:09:16;;;;;;;17.25;8.20;;;;;;;20.45;92.41;100646.03;8309194;28;20136;-59
2023/06/29 00:13:18;;;;;;;15.82;7.75;;;;;;;20.34;93.46;100643.88;8306122;28;20036;-59
2023/06/29 00:17:19;;;;;;;14.02;8.50;;;;;;;20.15;95.02;100644.53;8305962;28;20044;-59
2023/06/29 00:21:20;;;;;;;14.73;8.20;;;;;;;20.12;95.32;100633.91;8302867;28;20064;-60
2023/06/29 00:25:21;;;;;;;15.43;8.50;;;;;;;20.15;95.41;100639.03;8308338;28;20080;-59
2023/06/29 00:29:21;;;;;;;13.55;9.23;;;;;;;20.03;96.34;100640.63;8305777;28;20483;-59
2023/06/29 00:33:21;;;;;;;14.38;7.95;;;;;;;20.03;96.43;100632.41;8306139;28;20419;-59
2023/06/29 00:37:22;;;;;;;17.40;8.07;;;;;;;20.04;96.38;100631.34;8306487;28;20115;-59
2023/06/29 00:41:22;;;;;;;16.35;7.85;;;;;;;20.01;95.84;100637.22;8307774;28;20068;-59
2023/06/29 00:45:23;;;;;;;20.70;8.77;;;;;;;19.96;96.99;100634.22;8304628;28;20066;-64
2023/06/29 00:49:24;;;;;;;14.40;8.05;;;;;;;19.96;97.31;100626.84;8306899;28;20048;-64
2023/06/29 00:53:24;;;;;;;17.15;9.48;;;;;;;19.87;98.41;100629.91;8305587;28;20041;-64
2023/06/29 00:57:25;;;;;;;17.02;8.80;;;;;;;19.83;98.67;100628.63;8305490;28;20037;-64
2023/06/29 01:01:27;;;;;;;16.98;8.20;;;;;;;19.69;100.00;100616.66;8286869;28;20041;-64
2023/06/29 01:05:33;;;;;;;14.63;8.38;;;;;;;19.64;100.00;100619.13;8304399;28;20042;-64
2023/06/29 01:09:34;;;;;;;10.63;8.27;;;;;;;19.59;100.00;100615.31;8301358;28;20049;-60
2023/06/29 01:13:37;;;;;;;11.77;7.40;;;;;;;19.40;100.00;100606.66;8304948;28;20479;-59
2023/06/29 01:17:39;;;;;;;15.32;8.32;;;;;;;19.31;100.00;100599.63;8305165;28;20540;-59
2023/06/29 01:21:48;;;;;;;16.90;7.38;;;;;;;19.33;100.00;100605.75;8303394;28;20403;-62
2023/06/29 01:25:50;;;;;;;15.07;6.53;;;;;;;19.25;100.00;100605.84;8305285;28;20073;-62
2023/06/29 01:29:55;;;;;;;17.27;7.70;;;;;;;19.21;100.00;100601.81;8304754;28;20046;-62
2023/06/29 01:33:56;;;;;;;16.02;6.43;;;;;;;19.21;100.00;100604.53;8306196;28;20124;-62
2023/06/29 01:38:02;;;;;;;17.25;6.68;;;;;;;19.09;100.00;100603.34;8302485;28;20412;-60
2023/06/29 01:42:03;;;;;;;16.98;7.13;;;;;;;19.04;100.00;100600.34;8291168;28;20030;-60
2023/06/29 01:46:04;;;;;;;17.88;6.50;;;;;;;19.03;100.00;100595.91;8306120;28;20053;-60
2023/06/29 01:50:06;;;;;;;12.00;6.55;;;;;;;19.01;100.00;100595.25;8304272;28;20029;-60
2023/06/29 01:54:07;;;;;;;14.30;6.88;;;;;;;18.89;100.00;100596.81;8301301;28;20037;-60
2023/06/29 01:58:07;;;;;;;16.42;7.38;;;;;;;18.90;100.00;100595.75;8302574;28;20524;-59
2023/06/29 02:02:08;;;;;;;11.88;7.20;;;;;;;18.85;100.00;100589.16;8303403;28;20037;-60
2023/06/29 02:06:08;;;;;;;14.20;7.05;;;;;;;18.75;100.00;100575.75;8302614;28;20041;-61
2023/06/29 02:10:10;;;;;;;29.02;8.15;;;;;;;18.68;100.00;100595.88;8303227;28;20121;-62
2023/06/29 02:14:11;;;;;;;15.93;7.32;;;;;;;18.69;100.00;100590.19;8301934;28;20029;-62
2023/06/29 02:18:11;;;;;;;19.73;7.25;;;;;;;18.64;100.00;100586.34;8302285;28;20492;-62
2023/06/29 02:22:15;;;;;;;14.52;6.95;;;;;;;18.69;100.00;100579.25;8305172;28;20044;-62
2023/06/29 02:26:15;;;;;;;16.65;7.00;;;;;;;18.54;100.00;100575.69;8302607;28;20053;-62
2023/06/29 02:30:15;;;;;;;16.65;7.60;;;;;;;18.64;100.00;100579.00;8302083;28;20089;-60
2023/06/29 02:34:16;;;;;;;15.57;6.00;;;;;;;18.66;100.00;100567.84;8304582;28;20060;-60
2023/06/29 02:38:16;;;;;;;14.98;6.53;;;;;;;18.49;100.00;100564.47;8301092;28;20037;-60
2023/06/29 02:42:17;;;;;;;14.00;6.75;;;;;;;18.47;100.00;100566.53;8299116;28;20076;-59
2023/06/29 02:46:17;;;;;;;15.20;6.53;;;;;;;18.54;100.00;100559.25;8308904;28;20045;-60
2023/06/29 02:50:19;;;;;;;14.63;6.43;;;;;;;18.58;100.00;100552.38;8310715;28;20072;-59
2023/06/29 02:54:23;;;;;;;14.10;6.53;;;;;;;18.69;100.00;100557.34;8309181;28;20121;-64
2023/06/29 02:58:26;;;;;;;12.90;6.40;;;;;;;18.71;100.00;100555.28;8310437;28;20087;-64
2023/06/29 03:02:27;;;;;;;19.88;6.90;;;;;;;18.83;100.00;100547.38;8310129;28;20087;-63
2023/06/29 03:06:27;;;;;;;16.98;6.95;;;;;;;18.83;100.00;100550.13;8307766;28;20049;-63
2023/06/29 03:10:31;;;;;;;15.77;6.90;;;;;;;18.81;100.00;100553.06;8307914;28;20506;-62
2023/06/29 03:14:31;;;;;;;14.40;5.93;;;;;;;18.81;100.00;100542.09;8308814;28;20416;-63
2023/06/29 03:18:32;;;;;;;19.52;6.38;;;;;;;18.84;100.00;100549.06;8310319;28;20048;-64
2023/06/29 03:22:33;;;;;;;14.68;5.80;;;;;;;18.86;100.00;100542.38;8307376;28;20041;-63
2023/06/29 03:26:33;;;;;;;14.05;6.55;;;;;;;18.89;100.00;100543.88;8307866;28;20096;-63
2023/06/29 03:30:34;;;;;;;17.33;6.22;;;;;;;18.88;100.00;100551.25;8305019;28;20145;-63
2023/06/29 03:34:34;;;;;;;13.73;6.15;;;;;;;18.92;100.00;100547.09;8307158;28;20042;-63
2023/06/29 03:38:35;;;;;;;15.85;5.85;;;;;;;18.98;100.00;100539.97;8331095;28;20118;-63
2023/06/29 03:42:35;;;;;;;15.13;5.90;;;;;;;19.07;100.00;100539.69;8306563;28;20052;-64
2023/06/29 03:46:36;;;;;;;15.10;5.82;;;;;;;19.21;100.00;100530.53;8306004;28;20412;-60
2023/06/29 03:50:36;;;;;;;15.45;5.63;;;;;;;19.29;100.00;100544.16;8307822;28;20407;-60
2023/06/29 03:54:37;;;;;;;14.77;5.32;;;;;;;19.39;100.00;100550.16;8307192;28;20153;-60
2023/06/29 03:58:37;;;;;;;12.23;5.07;;;;;;;19.35;100.00;100543.38;8306378;28;20025;-60
2023/06/29 04:02:38;;;;;;;9.75;5.75;;;;;;;19.38;100.00;100542.97;8288192;28;20041;-60
2023/06/29 04:06:39;;;;;;;10.98;5.40;;;;;;;19.43;100.00;100524.00;8308464;28;20056;-60
2023/06/29 04:10:39;;;;;;;11.93;5.10;;;;;;;19.45;100.00;100523.81;8306717;28;20124;-60
2023/06/29 04:14:40;;;;;;;10.52;5.63;;;;;;;19.48;100.00;100514.38;8303858;28;20133;-60
2023/06/29 04:18:40;;;;;;;13.93;4.90;;;;;;;19.57;100.00;100515.94;8303486;28;20049;-60
2023/06/29 04:22:41;;;;;;;10.30;5.38;;;;;;;19.57;100.00;100514.00;8301685;28;20234;-60
2023/06/29 04:26:41;;;;;;;11.27;5.10;;;;;;;19.62;100.00;100511.53;8302307;28;20045;-60
2023/06/29 04:30:43;;;;;;;10.05;4.80;;;;;;;19.64;99.80;100509.41;8305601;28;20052;-60
2023/06/29 04:34:47;;;;;;;17.02;4.55;;;;;;;19.81;98.77;100509.97;8305138;28;20089;-60
2023/06/29 04:38:47;;;;;;;;;;;;;;;19.83;98.89;100518.84;8302565;28;20041;-60
2023/06/29 04:42:49;;;;;;;9.87;4.83;;;;;;;19.86;98.37;100518.47;8306575;28;19925;-59
2023/06/29 04:46:49;;;;;;;9.02;5.03;;;;;;;19.84;98.14;100506.81;8306058;28;20375;-60
2023/06/29 04:50:50;;;;;;;16.23;4.78;;;;;;;19.87;98.65;100509.16;8304615;28;20516;-59
2023/06/29 04:54:50;;;;;;;15.93;5.53;;;;;;;19.93;99.29;100505.63;8303498;28;20431;-60
2023/06/29 04:58:50;;;;;;;13.05;4.82;;;;;;;20.04;99.63;100505.06;8305899;28;20095;-60
2023/06/29 05:02:51;;;;;;;8.60;4.78;;;;;;;20.20;98.89;100502.03;8305443;28;20046;-60
2023/06/29 05:06:52;;;;;;;12.93;5.18;;;;;;;20.31;96.93;100506.97;8305483;28;20049;-60
2023/06/29 05:10:52;;;;;;;14.00;5.25;;;;;;;20.41;98.48;100497.28;8303160;28;20128;-60
2023/06/29 05:14:53;;;;;;;11.18;5.10;;;;;;;20.55;97.22;100492.66;8306960;28;20128;-59
2023/06/29 05:18:53;;;;;;;11.95;5.20;;;;;;;20.67;97.37;100502.00;8304912;28;20068;-60
2023/06/29 05:22:53;;;;;;;13.73;5.63;;;;;;;20.75;96.58;100488.97;8302848;28;20057;-60
2023/06/29 05:26:54;;;;;;;12.95;4.82;;;;;;;20.78;96.62;100493.19;8304420;28;20044;-59
2023/06/29 05:30:54;;;;;;;11.05;5.45;;;;;;;20.76;97.11;100489.78;8302288;28;20084;-60
2023/06/29 05:34:55;;;;;;;12.93;5.13;;;;;;;20.81;96.87;100488.13;8304143;28;20389;-60
2023/06/29 05:38:55;;;;;;;7.53;4.57;;;;;;;20.89;97.10;100495.34;8286759;28;20128;-60
2023/06/29 05:42:56;;;;;;;9.27;5.10;;;;;;;21.00;98.01;100492.00;8304083;28;20339;-60
2023/06/29 05:46:56;;;;;;;19.73;5.53;;;;;;;21.13;96.34;100497.53;8305170;28;20341;-60
2023/06/29 05:50:56;;;;;;;11.07;5.18;;;;;;;21.17;96.14;100487.81;8298196;28;20045;-62
2023/06/29 05:54:57;;;;;;;9.10;4.73;;;;;;;21.21;95.48;100478.94;8304716;28;20038;-62
2023/06/29 05:58:57;;;;;;;14.15;4.97;;;;;;;21.25;96.20;100488.47;8301389;28;20798;-62
2023/06/29 06:02:57;;;;;;;15.25;4.97;;;;;;;21.30;94.97;100487.81;8301295;28;20393;-63
2023/06/29 06:06:58;;;;;;;12.02;5.13;;;;;;;21.58;95.72;100488.47;8305924;28;20404;-62
2023/06/29 06:10:59;;;;;;;14.32;4.85;;;;;;;21.85;94.22;100492.06;8303494;28;20617;-63
2023/06/29 06:14:59;;;;;;;8.70;4.72;;;;;;;21.94;92.35;100480.63;8303339;28;20041;-62
2023/06/29 06:19:00;;;;;;;7.90;4.57;;;;;;;22.09;91.04;100483.97;8308079;28;20037;-62
2023/06/29 06:23:00;;;;;;;13.82;4.85;;;;;;;22.28;90.13;100483.06;8305961;28;20046;-62
2023/06/29 06:27:01;;;;;;;13.85;5.05;;;;;;;22.44;90.67;100477.06;8309462;28;20050;-62
2023/06/29 06:31:01;;;;;;;13.20;4.65;;;;;;;22.51;90.75;100483.44;8307787;28;20831;-62
2023/06/29 06:35:04;;;;;;;9.32;5.30;;;;;;;22.49;91.00;100488.28;8308987;28;20041;-62
2023/06/29 06:39:05;;;;;;;10.40;4.95;;;;;;;22.74;89.85;100483.75;8310961;28;20068;-62
2023/06/29 06:43:06;;;;;;;9.43;4.72;;;;;;;22.83;89.65;100487.94;8304323;28;20046;-62
2023/06/29 06:47:06;;;;;;;12.80;5.05;;;;;;;22.87;88.61;100483.66;8311143;28;20038;-63
2023/06/29 06:51:06;;;;;;;9.25;4.72;;;;;;;22.90;88.48;100488.75;8305970;28;20045;-63
2023/06/29 06:55:07;;;;;;;10.50;5.20;;;;;;;22.99;89.24;100498.44;8308420;28;20099;-63
2023/06/29 06:59:08;;;;;;;8.25;4.68;;;;;;;22.97;88.21;100495.06;8307496;28;20037;-62
2023/06/29 07:03:08;;;;;;;12.93;4.72;;;;;;;23.18;86.40;100491.13;8309766;28;20136;-63
2023/06/29 07:07:09;;;;;;;10.63;4.50;;;;;;;23.36;84.53;100487.63;8306940;28;20037;-63
2023/06/29 07:11:09;;;;;;;13.93;4.95;;;;;;;23.28;86.07;100496.16;8307092;28;20042;-62
2023/06/29 07:15:09;;;;;;;10.10;4.68;;;;;;;23.31;86.72;100487.44;8310176;28;20294;-62
2023/06/29 07:19:12;;;;;;;12.80;4.85;;;;;;;23.30;87.25;100494.91;8307746;28;20073;-63
2023/06/29 07:23:13;;;;;;;12.25;4.97;;;;;;;23.35;88.35;100485.91;8307208;28;20095;-63
2023/06/29 07:27:14;;;;;;;9.93;5.03;;;;;;;23.40;86.01;100488.88;8306193;28;20507;-63
2023/06/29 07:31:14;;;;;;;11.45;5.25;;;;;;;23.60;83.46;100484.88;8303897;28;20038;-63
2023/06/29 07:35:15;;;;;;;13.57;5.13;;;;;;;23.93;82.49;100482.66;8307086;28;20042;-63
2023/06/29 07:39:16;;;;;;;12.70;5.65;;;;;;;24.12;81.12;100480.78;8303831;28;20408;-63
2023/06/29 07:43:17;;;;;;;9.55;5.68;;;;;;;24.61;78.12;100472.34;8306664;28;20038;-63
2023/06/29 07:47:17;;;;;;;15.57;5.07;;;;;;;24.59;80.90;100477.25;8308277;28;20120;-60
2023/06/29 07:51:18;;;;;;;11.20;5.70;;;;;;;24.85;80.84;100479.66;8304445;28;20041;-61
2023/06/29 07:55:18;;;;;;;9.35;5.50;;;;;;;24.80;80.06;100476.78;8309075;28;20411;-60
2023/06/29 07:59:19;;;;;;;9.23;5.10;;;;;;;24.71;80.91;100476.28;8302864;28;20037;-60
2023/06/29 08:03:19;;;;;;;14.35;6.63;;;;;;;24.75;79.00;100473.88;8328418;28;20048;-60
2023/06/29 08:07:20;;;;;;;13.43;6.28;;;;;;;25.15;78.20;100474.97;8306908;28;20034;-61
2023/06/29 08:11:21;;;;;;;16.00;6.47;;;;;;;25.47;77.23;100479.19;8308424;28;20068;-61
2023/06/29 08:15:21;;;;;;;14.25;7.03;;;;;;;25.62;74.66;100476.81;8303832;28;20389;-60
2023/06/29 08:19:21;;;;;;;15.63;6.80;;;;;;;25.84;74.15;100469.59;8308404;28;20041;-60
2023/06/29 08:23:22;;;;;;;12.88;6.45;;;;;;;25.75;74.04;100470.19;8306391;28;20816;-60
2023/06/29 08:27:22;;;;;;;12.75;6.55;;;;;;;25.86;72.38;100466.59;8303673;28;20049;-60
2023/06/29 08:31:23;;;;;;;13.00;6.97;;;;;;;26.16;72.20;100468.16;8303738;28;20103;-60
2023/06/29 08:35:23;;;;;;;17.37;7.13;;;;;;;26.39;71.85;100458.94;8307495;28;20037;-62
2023/06/29 08:39:24;;;;;;;21.38;7.55;;;;;;;26.66;70.37;100457.34;8306650;28;20639;-63
2023/06/29 08:43:24;;;;;;;14.43;6.65;;;;;;;27.66;67.54;100452.81;8304477;28;20042;-62
2023/06/29 08:47:28;;;;;;;10.98;5.57;;;;;;;28.08;66.21;100454.91;8306758;28;20057;-63
2023/06/29 08:51:32;;;;;;;8.73;4.80;;;;;;;28.84;61.70;100450.34;8303907;28;20495;-63
2023/06/29 08:55:33;;;;;;;9.57;4.80;;;;;;;29.19;60.72;100446.03;8300453;28;20289;-63
2023/06/29 08:59:34;;;;;;;8.77;5.20;;;;;;;28.79;61.96;100448.34;8306929;28;20088;-63
2023/06/29 09:03:36;;;;;;;9.57;5.53;;;;;;;28.67;65.56;100444.88;8305320;28;20073;-63
2023/06/29 09:07:37;;;;;;;11.35;5.40;;;;;;;28.55;65.24;100452.50;8304551;28;20071;-63
2023/06/29 09:11:37;;;;;;;12.77;5.28;;;;;;;28.73;63.25;100443.81;8304676;28;20492;-63
2023/06/29 09:15:39;;;;;;;11.80;5.32;;;;;;;29.32;62.47;100441.94;8307033;28;20395;-63
2023/06/29 09:19:42;;;;;;;9.93;5.50;;;;;;;29.75;60.40;100442.63;8304680;28;20045;-63
2023/06/29 09:23:44;;;;;;;10.07;5.53;;;;;;;29.61;61.67;100430.22;8302894;28;20041;-63
2023/06/29 09:27:44;;;;;;;10.18;5.07;;;;;;;29.32;61.25;100436.38;8303506;28;20543;-63
2023/06/29 09:32:02;;;;;;;10.75;5.88;;;;;;;29.16;60.73;100427.06;8302652;28;20111;-63
2023/06/29 09:36:06;;;;;;;15.65;5.78;;;;;;;29.63;61.45;100428.03;8302091;28;20116;-62
2023/06/29 09:40:12;;;;;;;12.98;5.53;;;;;;;29.53;60.71;100421.50;8305446;28;20041;-63
2023/06/29 09:44:16;;;;;;;11.68;5.85;;;;;;;29.17;59.87;100431.50;8303732;28;20042;-63
2023/06/29 09:48:21;;;;;;;11.07;5.95;;;;;;;28.53;63.48;100422.16;8304768;28;20037;-64
2023/06/29 09:52:22;;;;;;;11.38;5.90;;;;;;;28.60;60.76;100427.50;8304001;28;20175;-64
2023/06/29 09:56:22;;;;;;;13.48;7.55;;;;;;;27.78;65.38;100428.56;8303830;28;20087;-64
2023/06/29 10:00:23;;;;;;;19.42;8.45;;;;;;;27.35;67.05;100428.41;8301825;28;20034;-64
2023/06/29 10:04:24;;;;;;;28.88;10.60;;;;;;;27.03;70.42;100413.34;8302654;28;20044;-64
2023/06/29 10:08:28;;;;;;;17.50;8.65;;;;;;;27.24;71.03;100426.50;8304564;28;20050;-64
2023/06/29 10:12:29;;;;;;;23.42;8.93;;;;;;;26.84;69.32;100418.31;8304088;28;20369;-64
2023/06/29 10:16:33;;;;;;;22.52;8.57;;;;;;;26.82;68.87;100426.03;8303095;28;20685;-64
2023/06/29 10:20:36;;;;;;;16.70;8.55;;;;;;;26.87;68.54;100420.59;8304114;28;20033;-64
2023/06/29 10:24:42;;;;;;;20.87;9.17;;;;;;;26.81;68.26;100422.38;8295529;28;20547;-64
2023/06/29 10:28:43;;;;;;;17.80;9.05;;;;;;;26.84;67.96;100421.06;8298637;28;20561;-64
2023/06/29 10:32:48;;;;;;;21.10;8.50;;;;;;;27.19;67.11;100424.50;8302429;28;20052;-64
2023/06/29 10:36:49;;;;;;;13.57;7.05;;;;;;;27.50;65.78;100420.34;8302811;28;20112;-64
2023/06/29 10:40:50;;;;;;;16.58;7.53;;;;;;;27.67;69.46;100422.00;8303271;28;20042;-64
2023/06/29 10:44:50;;;;;;;15.13;7.07;;;;;;;27.87;64.33;100413.16;8302398;28;20050;-64
2023/06/29 10:48:59;;;;;;;14.90;7.30;;;;;;;28.00;65.28;100404.47;8304454;28;20041;-64
2023/06/29 10:53:02;;;;;;;12.70;7.47;;;;;;;28.42;62.20;100406.41;8294872;28;20552;-64
2023/06/29 10:57:07;;;;;;;11.65;5.47;;;;;;;29.41;59.65;100398.56;8298458;28;20041;-64
2023/06/29 11:01:08;;;;;;;17.45;6.30;;;;;;;29.51;57.58;100407.84;8298132;28;20511;-64
2023/06/29 11:05:14;;;;;;;16.48;6.82;;;;;;;29.79;60.90;100401.94;8302906;28;20469;-64
2023/06/29 11:09:15;;;;;;;15.55;7.18;;;;;;;29.28;59.25;100402.66;8309615;28;20038;-64
2023/06/29 11:13:19;;;;;;;14.50;7.38;;;;;;;28.48;60.06;100397.03;8308478;28;20041;-64
2023/06/29 11:17:19;;;;;;;13.70;7.22;;;;;;;28.48;60.69;100396.19;8308482;28;20041;-64
2023/06/29 11:21:21;;;;;;;17.73;7.30;;;;;;;28.51;61.90;100393.75;8308800;28;20037;-65
2023/06/29 11:25:21;;;;;;;11.07;6.13;;;;;;;28.99;60.92;100398.44;8304445;28;20060;-65
2023/06/29 11:29:22;;;;;;;12.60;6.57;;;;;;;28.77;59.94;100392.09;8307323;28;20029;-64
2023/06/29 11:33:22;;;;;;;10.02;5.80;;;;;;;28.63;59.92;100387.22;8306656;28;20040;-64
2023/06/29 11:37:23;;;;;;;13.73;6.50;;;;;;;28.48;60.08;100385.91;8309795;28;20061;-64
2023/06/29 11:41:24;;;;;;;10.20;6.22;;;;;;;28.43;61.85;100379.44;8306976;28;20751;-64
2023/06/29 11:45:24;;;;;;;9.47;6.03;;;;;;;28.21;61.97;100381.38;8307795;28;20400;-60
2023/06/29 11:49:25;;;;;;;9.63;5.40;;;;;;;27.98;61.52;100382.47;8307549;28;20766;-60
2023/06/29 11:53:25;;;;;;;9.68;5.35;;;;;;;27.79;63.77;100383.00;8322424;28;20060;-60
2023/06/29 11:57:26;;;;;;;12.35;5.93;;;;;;;27.50;62.77;100375.91;8306095;28;20037;-60
2023/06/29 12:01:26;;;;;;;13.45;6.57;;;;;;;27.35;63.70;100375.66;8304601;28;20033;-60
2023/06/29 12:05:28;;;;;;;13.00;5.93;;;;;;;27.15;63.37;100380.81;8306049;28;20033;-60
2023/06/29 12:09:30;;;;;;;13.02;6.28;;;;;;;26.85;67.49;100372.81;8306060;28;20534;-60
2023/06/29 12:13:31;;;;;;;9.93;5.63;;;;;;;26.80;66.29;100367.16;8306023;28;20046;-60
2023/06/29 12:17:33;;;;;;;11.57;6.50;;;;;;;26.63;65.81;100364.34;8304893;28;20034;-60
2023/06/29 12:21:34;;;;;;;12.90;7.10;;;;;;;26.59;67.69;100360.34;8301363;28;20654;-61
2023/06/29 12:25:44;;;;;;;12.20;6.77;;;;;;;26.55;68.07;100367.50;8303511;28;20065;-61
2023/06/29 12:29:45;;;;;;;16.10;6.75;;;;;;;26.36;71.25;100362.38;8300597;28;20295;-60
2023/06/29 12:33:45;;;;;;;14.05;7.25;;;;;;;26.29;69.38;100356.97;8318706;28;20037;-60
2023/06/29 12:37:46;;;;;;;16.75;8.00;;;;;;;25.97;69.34;100358.50;8304372;28;20125;-60
2023/06/29 12:41:46;;;;;;;13.20;7.90;;;;;;;25.98;69.18;100360.19;8306438;28;20551;-60
2023/06/29 12:45:47;;;;;;;12.00;7.30;;;;;;;25.85;72.31;100354.06;8305020;28;20609;-60
2023/06/29 12:49:48;;;;;;;15.55;7.80;;;;;;;25.86;74.72;100361.31;8306728;28;20499;-60
2023/06/29 12:53:48;;;;;;;15.20;7.40;;;;;;;25.33;83.82;100363.34;8302671;28;20068;-60
2023/06/29 12:57:49;;;;;;;13.23;9.25;;;;;;;24.96;87.43;100368.22;8304024;28;20038;-60
2023/06/29 13:01:49;;;;;;;31.40;14.13;;;;;;;24.67;92.37;100371.88;8302469;28;20044;-60
2023/06/29 13:05:52;;;;;;;27.85;14.23;;;;;;;24.35;99.71;100374.00;8306318;28;20510;-60
2023/06/29 13:09:52;;;;;;;33.08;15.07;;;;;;;23.89;99.52;100375.63;8304031;28;20456;-60
2023/06/29 13:13:53;;;;;;;36.47;17.05;;;;;;;23.60;100.00;100373.63;8303678;28;20037;-60
2023/06/29 13:17:54;;;;;;;47.05;19.33;;;;;;;23.27;100.00;100384.97;8306006;28;20095;-60
2023/06/29 13:21:55;;;;;;;37.50;17.33;;;;;;;23.16;100.00;100389.28;8301893;28;20061;-59
2023/06/29 13:25:55;;;;;;;39.15;20.15;;;;;;;23.18;100.00;100378.84;8300259;28;20042;-59
2023/06/29 13:29:56;;;;;;;34.17;19.38;;;;;;;22.97;100.00;100379.22;8301751;28;20105;-59
2023/06/29 13:33:59;;;;;;;39.65;21.60;;;;;;;23.29;100.00;100384.75;8303911;28;20038;-59
2023/06/29 13:37:59;;;;;;;37.03;20.67;;;;;;;23.56;100.00;100380.66;8304908;28;20588;-59
2023/06/29 13:42:00;;;;;;;38.70;21.27;;;;;;;23.67;100.00;100374.38;8301856;28;20060;-59
2023/06/29 13:46:00;;;;;;;35.30;20.33;;;;;;;23.76;100.00;100373.00;8305753;28;20073;-59
2023/06/29 13:50:01;;;;;;;37.90;21.67;;;;;;;23.83;100.00;100374.63;8303051;28;20033;-62
2023/06/29 13:54:03;;;;;;;49.05;23.73;;;;;;;24.09;100.00;100370.75;8299630;28;20041;-60
2023/06/29 13:58:04;;;;;;;38.55;21.98;;;;;;;24.21;100.00;100364.19;8302929;28;20150;-60
2023/06/29 14:02:04;;;;;;;37.35;21.80;;;;;;;24.33;100.00;100361.47;8303963;28;20045;-59
2023/06/29 14:06:05;;;;;;;35.85;21.95;;;;;;;24.45;100.00;100356.84;8302853;28;20504;-60
2023/06/29 14:10:06;;;;;;;38.70;21.92;;;;;;;24.65;100.00;100354.69;8304581;28;20568;-59
2023/06/29 14:14:06;;;;;;;41.53;22.27;;;;;;;24.88;100.00;100351.94;8303898;28;20090;-60
2023/06/29 14:18:07;;;;;;;42.25;23.80;;;;;;;24.72;100.00;100341.59;8302501;28;20451;-59
2023/06/29 14:22:08;;;;;;;38.15;23.05;;;;;;;24.58;100.00;100357.50;8296587;28;20367;-59
2023/06/29 14:26:09;;;;;;;44.00;24.52;;;;;;;24.53;100.00;100364.81;8301027;28;20029;-59
2023/06/29 14:30:10;;;;;;;42.50;23.45;;;;;;;24.29;100.00;100368.56;8301911;28;20041;-59
2023/06/29 14:34:11;;;;;;;43.75;24.58;;;;;;;23.57;100.00;100357.50;8302185;28;20479;-60
2023/06/29 14:38:11;;;;;;;43.10;24.90;;;;;;;23.53;100.00;100361.78;8304960;28;20072;-60
2023/06/29 14:42:12;;;;;;;48.33;25.02;;;;;;;23.46;100.00;100366.53;8306174;28;20053;-59
2023/06/29 14:46:12;;;;;;;45.58;24.05;;;;;;;23.46;100.00;100355.50;8310695;28;20073;-59
2023/06/29 14:50:13;;;;;;;45.58;26.33;;;;;;;23.77;100.00;100347.06;8310691;28;20428;-59
2023/06/29 14:54:18;;;;;;;40.67;24.20;;;;;;;24.06;100.00;100336.13;8304604;28;20243;-59
2023/06/29 14:58:18;;;;;;;40.00;23.63;;;;;;;24.31;100.00;100344.31;8307521;28;20136;-59
2023/06/29 15:02:19;;;;;;;34.75;21.75;;;;;;;24.68;100.00;100343.13;8310691;28;20049;-59
2023/06/29 15:06:19;;;;;;;43.10;22.00;;;;;;;24.90;99.33;100333.22;8308984;28;20037;-59
2023/06/29 15:10:19;;;;;;;32.33;18.75;;;;;;;25.31;92.75;100329.53;8308751;28;20041;-60
2023/06/29 15:14:20;;;;;;;37.53;21.60;;;;;;;25.55;95.30;100332.06;8308695;28;20407;-59
2023/06/29 15:18:21;;;;;;;37.00;20.95;;;;;;;25.69;93.88;100322.41;8306226;28;20057;-59
2023/06/29 15:22:21;;;;;;;31.88;18.45;;;;;;;25.79;89.54;100306.00;8304686;28;20080;-59
2023/06/29 15:26:22;;;;;;;37.22;19.98;;;;;;;26.06;90.04;100318.25;8304889;28;20428;-59
2023/06/29 15:30:23;;;;;;;34.67;18.73;;;;;;;26.15;85.42;100315.94;8305002;28;20038;-59
2023/06/29 15:34:24;;;;;;;32.55;18.00;;;;;;;26.10;82.01;100313.09;8308251;28;20088;-59
2023/06/29 15:38:24;;;;;;;32.63;18.27;;;;;;;26.04;81.80;100308.53;8306143;28;20387;-59
2023/06/29 15:42:25;;;;;;;31.90;18.70;;;;;;;26.06;80.91;100301.63;8306586;28;20515;-59
2023/06/29 15:46:27;;;;;;;33.20;18.05;;;;;;;26.29;81.24;100289.63;8307324;28;20276;-59
2023/06/29 15:50:27;;;;;;;32.28;18.85;;;;;;;26.42;80.18;100290.16;8304867;28;20073;-59
2023/06/29 15:54:28;;;;;;;31.13;17.00;;;;;;;26.52;74.70;100279.25;8307099;28;20140;-59
2023/06/29 15:58:28;;;;;;;28.88;18.08;;;;;;;26.60;72.59;100284.34;8305947;28;20562;-59
2023/06/29 16:02:29;;;;;;;26.20;17.17;;;;;;;26.60;72.89;100286.31;8305639;28;20111;-60
2023/06/29 16:06:30;;;;;;;28.05;17.83;;;;;;;26.44;71.45;100282.41;8307077;28;20304;-59
2023/06/29 16:10:31;;;;;;;29.20;17.15;;;;;;;26.18;72.57;100280.25;8308720;28;20029;-60
2023/06/29 16:14:32;;;;;;;28.42;17.88;;;;;;;26.18;73.51;100277.50;8305466;28;20515;-60
2023/06/29 16:18:32;;;;;;;30.17;18.08;;;;;;;26.14;74.93;100270.75;8290333;28;20044;-60
2023/06/29 16:22:33;;;;;;;33.35;18.25;;;;;;;26.00;75.44;100269.38;8305266;28;20033;-60
2023/06/29 16:26:33;;;;;;;29.42;17.77;;;;;;;26.10;76.71;100269.56;8300207;28;20136;-60
2023/06/29 16:30:35;;;;;;;30.80;18.98;;;;;;;26.08;75.35;100274.53;8307623;28;20404;-59
2023/06/29 16:34:35;;;;;;;28.65;17.95;;;;;;;26.18;72.62;100271.94;8306987;28;20073;-60
2023/06/29 16:38:36;;;;;;;31.23;18.33;;;;;;;26.36;73.59;100274.50;8305505;28;20104;-60
2023/06/29 16:42:36;;;;;;;37.55;20.17;;;;;;;26.38;73.80;100271.50;8306157;28;20045;-60
2023/06/29 16:46:37;;;;;;;31.17;19.08;;;;;;;26.30;72.97;100274.66;8307328;28;20030;-60
2023/06/29 16:50:38;;;;;;;32.70;19.55;;;;;;;26.36;73.68;100274.50;8304347;28;20029;-60
2023/06/29 16:54:38;;;;;;;33.80;20.23;;;;;;;26.51;73.55;100277.56;8304633;28;20033;-59
2023/06/29 16:58:39;;;;;;;34.15;18.67;;;;;;;26.59;71.10;100277.13;8306475;28;20037;-62
2023/06/29 17:02:39;;;;;;;33.30;19.70;;;;;;;26.54;70.51;100268.75;8303308;28;20575;-62
2023/06/29 17:06:39;;;;;;;36.35;20.67;;;;;;;26.57;70.05;100275.72;8307384;28;20363;-62
2023/06/29 17:10:40;;;;;;;33.60;20.35;;;;;;;26.48;71.86;100274.44;8302545;28;20084;-62
2023/06/29 17:14:40;;;;;;;34.58;20.08;;;;;;;26.32;74.19;100270.53;8307614;28;20041;-61
2023/06/29 17:18:41;;;;;;;31.45;19.63;;;;;;;26.39;71.73;100265.69;8304296;28;20120;-62
2023/06/29 17:22:41;;;;;;;36.20;19.15;;;;;;;26.43;72.50;100269.66;8301829;28;20061;-61
2023/06/29 17:26:42;;;;;;;30.50;18.27;;;;;;;26.38;73.14;100266.75;8302605;28;20570;-61
2023/06/29 17:30:43;;;;;;;33.20;19.40;;;;;;;26.30;73.96;100269.97;8302369;28;20567;-62
2023/06/29 17:34:43;;;;;;;34.85;19.92;;;;;;;26.15;73.25;100261.34;8302996;28;20179;-62
2023/06/29 17:38:44;;;;;;;31.25;19.73;;;;;;;25.89;73.92;100264.66;8303949;28;20045;-62
2023/06/29 17:42:45;;;;;;;37.70;19.83;;;;;;;25.79;75.53;100267.22;8303881;28;20132;-62
2023/06/29 17:46:45;;;;;;;35.45;21.33;;;;;;;25.71;72.77;100259.28;8303009;28;20085;-62
2023/06/29 17:50:50;;;;;;;38.90;21.95;;;;;;;25.63;70.83;100261.63;8301467;28;20041;-62
2023/06/29 17:54:51;;;;;;;36.47;20.80;;;;;;;25.56;72.34;100264.53;8303097;28;20471;-62
2023/06/29 17:58:51;;;;;;;40.35;22.25;;;;;;;25.34;72.73;100266.22;8303091;28;20045;-62
2023/06/29 18:02:52;;;;;;;36.45;21.13;;;;;;;25.34;72.36;100266.22;8300338;28;20061;-62
2023/06/29 18:06:53;;;;;;;36.85;22.10;;;;;;;25.37;74.12;100267.69;8299146;28;20065;-62
2023/06/29 18:10:54;;;;;;;37.28;22.10;;;;;;;25.23;72.78;100258.75;8304453;28;20076;-62
2023/06/29 18:14:54;;;;;;;39.28;21.58;;;;;;;25.19;73.82;100254.81;8303858;28;20041;-62
2023/06/29 18:18:55;;;;;;;39.30;21.35;;;;;;;25.10;73.49;100250.72;8314458;28;20048;-62
2023/06/29 18:22:56;;;;;;;34.03;21.52;;;;;;;25.00;73.78;100259.59;8311625;28;20038;-62